createdAt,value
2023-02-22T00:03:23.984Z,7.39
2023-02-22T00:07:20.401Z,7.42
2023-02-22T00:15:21.278Z,7.39
2023-02-22T00:19:18.421Z,7.33
2023-02-22T00:23:21.023Z,7.25
2023-02-22T00:31:19.722Z,7.27
2023-02-22T00:35:21.856Z,7.29
2023-02-22T00:39:18.548Z,7.34
2023-02-22T00:43:18.509Z,7.36
2023-02-22T00:47:18.737Z,7.35
2023-02-22T00:51:18.736Z,7.34
2023-02-22T00:55:21.804Z,7.33
2023-02-22T00:59:18.734Z,7.27
2023-02-22T01:03:20.291Z,7.25
2023-02-22T01:11:18.814Z,7.22
2023-02-22T01:15:20.882Z,7.20
2023-02-22T01:19:18.841Z,7.18
2023-02-22T01:27:18.601Z,7.15
2023-02-22T01:31:18.941Z,7.12
2023-02-22T01:35:21.268Z,7.08
2023-02-22T01:39:18.846Z,7.04
2023-02-22T01:43:21.281Z,7.02
2023-02-22T01:51:21.430Z,7.03
2023-02-22T01:55:18.764Z,6.99
2023-02-22T01:59:21.674Z,7.01
2023-02-22T02:03:26.395Z,7.00
2023-02-22T02:07:21.641Z,6.97
2023-02-22T02:11:21.214Z,6.92
2023-02-22T02:15:22.565Z,6.91
2023-02-22T02:19:26.002Z,6.92
2023-02-22T02:23:40.027Z,6.91
2023-02-22T02:35:25.881Z,6.92
2023-02-22T02:39:26.543Z,6.94
2023-02-22T02:55:19.467Z,6.96
2023-02-22T02:59:25.227Z,6.95
2023-02-22T03:03:33.643Z,6.93
2023-02-22T03:11:22.761Z,6.92
2023-02-22T03:15:29.019Z,6.90
2023-02-22T03:19:26.556Z,6.89
2023-02-22T03:27:24.746Z,6.86
2023-02-22T03:31:25.034Z,6.85
2023-02-22T03:35:22.904Z,6.83
2023-02-22T03:39:19.847Z,6.81
2023-02-22T03:51:20.491Z,6.78
2023-02-22T03:55:18.964Z,6.75
2023-02-22T03:59:25.333Z,6.74
2023-02-22T04:03:19.483Z,6.73
2023-02-22T04:07:19.122Z,6.69
2023-02-22T04:11:19.060Z,6.65
2023-02-22T04:15:21.202Z,6.64
2023-02-22T04:19:19.207Z,6.61
2023-02-22T04:27:19.269Z,6.62
2023-02-22T04:31:19.583Z,6.63
2023-02-22T04:35:19.465Z,6.62
2023-02-22T04:39:19.256Z,6.64
2023-02-22T04:55:19.412Z,6.61
2023-02-22T04:59:19.101Z,6.58
2023-02-22T05:03:19.283Z,6.59
2023-02-22T05:07:19.420Z,6.57
2023-02-22T05:11:19.387Z,6.54
2023-02-22T05:19:19.286Z,6.52
2023-02-22T05:23:19.200Z,6.51
2023-02-22T05:27:19.572Z,6.54
2023-02-22T05:31:19.657Z,6.55
2023-02-22T05:35:20.751Z,6.57
2023-02-22T05:39:19.228Z,6.58
2023-02-22T05:43:19.514Z,6.59
2023-02-22T05:51:19.592Z,6.61
2023-02-22T05:55:21.756Z,6.60
2023-02-22T05:59:19.837Z,6.61
2023-02-22T06:03:19.352Z,6.59
2023-02-22T06:07:19.341Z,6.60
2023-02-22T06:11:19.838Z,6.58
2023-02-22T06:15:21.144Z,6.59
2023-02-22T06:19:19.406Z,6.60
2023-02-22T06:23:19.359Z,6.61
2023-02-22T06:27:19.439Z,6.65
2023-02-22T06:39:19.518Z,6.66
2023-02-22T06:43:19.521Z,6.68
2023-02-22T06:47:19.497Z,6.66
2023-02-22T07:03:20.253Z,6.65
2023-02-22T07:19:19.824Z,6.64
2023-02-22T07:27:19.485Z,6.63
2023-02-22T07:31:19.862Z,6.60
2023-02-22T07:35:22.101Z,6.55
2023-02-22T07:39:19.695Z,6.52
2023-02-22T07:47:19.691Z,6.51
2023-02-22T07:51:19.791Z,6.53
2023-02-22T07:55:21.787Z,6.54
2023-02-22T07:59:20.816Z,6.55
2023-02-22T08:03:22.789Z,6.56
2023-02-22T08:07:19.613Z,6.59
2023-02-22T08:11:19.980Z,6.62
2023-02-22T08:15:22.617Z,6.64
2023-02-22T08:19:19.688Z,6.69
2023-02-22T08:23:21.675Z,6.72
2023-02-22T08:27:24.222Z,6.73
2023-02-22T08:39:20.310Z,6.69
2023-02-22T08:43:20.813Z,6.66
2023-02-22T08:47:19.873Z,6.63
2023-02-22T08:51:20.790Z,6.65
2023-02-22T08:55:20.791Z,6.66
2023-02-22T08:59:19.774Z,6.78
2023-02-22T09:03:19.973Z,6.92
2023-02-22T09:07:20.030Z,6.98
2023-02-22T09:11:19.907Z,7.06
2023-02-22T09:15:20.956Z,7.11
2023-02-22T09:19:20.077Z,7.17
2023-02-22T09:23:21.557Z,7.18
2023-02-22T09:27:19.819Z,7.21
2023-02-22T09:39:20.749Z,7.27
2023-02-22T09:43:30.900Z,7.31
2023-02-22T09:47:31.330Z,7.35
2023-02-22T09:51:22.141Z,7.36
2023-02-22T09:55:29.917Z,7.35
2023-02-22T09:59:25.962Z,7.38
2023-02-22T10:03:24.718Z,7.36
2023-02-22T10:11:32.169Z,7.34
2023-02-22T10:15:36.230Z,7.30
2023-02-22T10:19:27.211Z,7.32
2023-02-22T10:23:30.179Z,7.35
2023-02-22T10:35:23.061Z,7.39
2023-02-22T10:39:26.209Z,7.41
2023-02-22T10:43:20.718Z,7.43
2023-02-22T10:47:21.987Z,7.50
2023-02-22T10:51:20.344Z,7.55
2023-02-22T10:55:20.809Z,7.58
2023-02-22T10:59:31.779Z,7.62
2023-02-22T11:03:22.773Z,7.59
2023-02-22T11:07:24.107Z,7.60
2023-02-22T11:11:23.697Z,7.65
2023-02-22T11:19:23.430Z,7.62
2023-02-22T11:23:22.505Z,7.61
2023-02-22T11:27:25.136Z,7.58
2023-02-22T11:31:23.493Z,7.61
2023-02-22T11:35:34.413Z,7.59
2023-02-22T11:39:23.450Z,7.54
2023-02-22T11:47:22.715Z,7.52
2023-02-22T11:55:41.144Z,7.56
2023-02-22T11:59:33.406Z,7.60
2023-02-22T12:03:35.969Z,7.63
2023-02-22T12:07:32.354Z,7.64
2023-02-22T12:11:25.087Z,7.67
2023-02-22T12:19:29.148Z,7.68
2023-02-22T12:23:29.163Z,7.66
2023-02-22T12:27:26.390Z,7.70
2023-02-22T12:31:24.708Z,7.74
2023-02-22T12:35:23.485Z,7.80
2023-02-22T12:39:29.650Z,7.83
2023-02-22T12:43:28.108Z,7.86
2023-02-22T12:47:27.975Z,7.89
2023-02-22T12:51:27.309Z,7.92
2023-02-22T12:55:24.219Z,7.96
2023-02-22T12:59:25.990Z,7.98
2023-02-22T13:03:28.268Z,8.01
2023-02-22T13:11:28.182Z,8.04
2023-02-22T13:19:35.652Z,8.03
2023-02-22T13:23:29.748Z,8.02
2023-02-22T13:27:25.345Z,8.01
2023-02-22T13:31:40.704Z,8.02
2023-02-22T13:35:34.532Z,8.04
2023-02-22T13:39:33.133Z,8.05
2023-02-22T13:43:31.548Z,8.07
2023-02-22T13:47:40.285Z,8.09
2023-02-22T13:51:35.827Z,8.07
2023-02-22T13:55:26.431Z,8.05
2023-02-22T13:59:25.713Z,8.03
2023-02-22T14:03:35.101Z,7.98
2023-02-22T14:07:40.291Z,7.99
2023-02-22T14:11:42.105Z,8.07
2023-02-22T14:15:29.723Z,8.14
2023-02-22T14:19:22.673Z,8.19
2023-02-22T14:23:34.354Z,8.24
2023-02-22T14:27:20.717Z,8.26
2023-02-22T14:31:35.609Z,8.25
2023-02-22T14:35:28.737Z,8.20
2023-02-22T14:39:31.028Z,8.17
2023-02-22T14:43:24.379Z,8.11
2023-02-22T14:47:28.393Z,8.05
2023-02-22T14:51:28.430Z,8.00
2023-02-22T14:55:24.717Z,7.98
2023-02-22T14:59:24.181Z,7.95
2023-02-22T15:03:29.049Z,7.92
2023-02-22T15:07:26.362Z,7.93
2023-02-22T15:11:22.405Z,7.89
2023-02-22T15:15:22.830Z,7.90
2023-02-22T15:19:25.950Z,7.93
2023-02-22T15:23:23.532Z,7.99
2023-02-22T15:27:21.164Z,8.09
2023-02-22T15:31:25.052Z,8.18
2023-02-22T15:35:27.576Z,8.27
2023-02-22T15:39:25.901Z,8.36
2023-02-22T15:43:23.214Z,8.42
2023-02-22T15:47:24.346Z,8.46
2023-02-22T15:51:21.126Z,8.44
2023-02-22T15:55:25.670Z,8.42
2023-02-22T15:59:28.437Z,8.43
2023-02-22T16:03:22.767Z,8.55
2023-02-22T16:07:20.976Z,8.68
2023-02-22T16:11:28.974Z,8.81
2023-02-22T16:15:20.952Z,8.88
2023-02-22T16:19:31.981Z,8.94
2023-02-22T16:23:22.481Z,8.89
2023-02-22T16:27:23.323Z,8.88
2023-02-22T16:31:24.441Z,8.86
2023-02-22T16:35:27.375Z,8.85
2023-02-22T16:47:22.029Z,8.84
2023-02-22T16:51:24.493Z,8.93
2023-02-22T16:55:21.478Z,9.29
2023-02-22T16:59:21.705Z,9.54
2023-02-22T17:03:21.291Z,9.51
2023-02-22T17:07:23.045Z,9.41
2023-02-22T17:11:21.541Z,9.24
2023-02-22T17:15:23.881Z,9.14
2023-02-22T17:19:23.253Z,9.10
2023-02-22T17:23:22.341Z,9.06
2023-02-22T17:27:21.225Z,9.02
2023-02-22T17:31:25.385Z,8.97
2023-02-22T17:35:22.917Z,8.93
2023-02-22T17:39:21.074Z,8.85
2023-02-22T17:43:24.053Z,8.79
2023-02-22T17:47:21.141Z,8.74
2023-02-22T17:51:24.050Z,8.65
2023-02-22T17:55:21.747Z,8.57
2023-02-22T17:59:21.272Z,8.46
2023-02-22T18:03:24.086Z,8.35
2023-02-22T18:07:21.255Z,8.28
2023-02-22T18:11:25.194Z,8.17
2023-02-22T18:15:22.570Z,8.03
2023-02-22T18:19:23.267Z,7.98
2023-02-22T18:23:22.012Z,7.88
2023-02-22T18:27:22.980Z,7.84
2023-02-22T18:31:22.506Z,7.71
2023-02-22T18:35:21.271Z,7.59
2023-02-22T18:39:24.028Z,7.51
2023-02-22T18:47:21.512Z,7.57
2023-02-22T18:51:22.632Z,7.56
2023-02-22T18:55:22.412Z,7.52
2023-02-22T18:59:21.410Z,7.43
2023-02-22T19:03:21.427Z,7.41
2023-02-22T19:07:25.086Z,7.32
2023-02-22T19:11:23.456Z,7.26
2023-02-22T19:15:22.545Z,7.19
2023-02-22T19:19:21.637Z,7.18
2023-02-22T19:23:21.410Z,7.19
2023-02-22T19:35:25.361Z,7.10
2023-02-22T19:43:21.527Z,7.00
2023-02-22T19:47:21.612Z,7.01
2023-02-22T19:51:24.570Z,6.97
2023-02-22T19:55:21.467Z,6.89
2023-02-22T19:59:22.618Z,6.80
2023-02-22T20:03:24.813Z,6.74
2023-02-22T20:07:21.701Z,6.75
2023-02-22T20:11:22.606Z,6.79
2023-02-22T20:15:23.007Z,6.76
2023-02-22T20:19:22.083Z,6.70
2023-02-22T20:23:21.778Z,6.63
2023-02-22T20:27:23.319Z,6.57
2023-02-22T20:31:22.253Z,6.59
2023-02-22T20:35:21.600Z,6.63
2023-02-22T20:43:22.163Z,6.61
2023-02-22T20:47:21.607Z,6.62
2023-02-22T20:55:21.692Z,6.60
2023-02-22T20:59:21.820Z,6.57
2023-02-22T21:03:21.804Z,6.55
2023-02-22T21:07:21.670Z,6.53
2023-02-22T21:11:23.320Z,6.47
2023-02-22T21:15:25.018Z,6.43
2023-02-22T21:19:24.277Z,6.42
2023-02-22T21:23:21.715Z,6.45
2023-02-22T21:27:21.849Z,6.46
2023-02-22T21:31:24.258Z,6.48
2023-02-22T21:35:23.524Z,6.49
2023-02-22T21:39:27.123Z,6.44
2023-02-22T21:43:24.093Z,6.36
2023-02-22T21:47:22.295Z,6.30
2023-02-22T21:55:22.056Z,6.23
2023-02-22T21:59:22.715Z,6.15
2023-02-22T22:03:23.525Z,6.10
2023-02-22T22:07:22.005Z,6.09
2023-02-22T22:11:24.043Z,6.05
2023-02-22T22:15:22.545Z,6.07
2023-02-22T22:19:21.993Z,6.09
2023-02-22T22:27:22.233Z,6.08
2023-02-22T22:31:24.038Z,6.02
2023-02-22T22:35:22.026Z,5.96
2023-02-22T22:39:21.889Z,5.93
2023-02-22T22:43:21.972Z,5.91
2023-02-22T22:47:21.919Z,5.87
2023-02-22T22:51:22.537Z,5.85
2023-02-22T22:55:23.262Z,5.83
2023-02-22T23:03:22.209Z,5.77
2023-02-22T23:07:22.035Z,5.75
2023-02-22T23:11:22.119Z,5.76
2023-02-22T23:15:23.616Z,5.74
2023-02-22T23:19:22.170Z,5.72
2023-02-22T23:23:22.653Z,5.68
2023-02-22T23:27:22.770Z,5.71
2023-02-22T23:31:22.980Z,5.65
2023-02-22T23:35:22.145Z,5.68
2023-02-22T23:39:23.296Z,5.73
2023-02-22T23:43:24.490Z,5.75
2023-02-22T23:47:22.096Z,5.73
2023-02-22T23:51:24.258Z,5.76
2023-02-22T23:55:23.493Z,5.79
2023-02-22T23:59:23.719Z,5.82
